Time;durP1;ratioP1;P1;durP2;ratioP2;P2;SDS_P1;SDS_P2;PMS_P1;PMS_P2;Temp;Humidity;BMP_temperature;BMP_pressure;BME280_temperature;BME280_humidity;BME280_pressure;Samples;Min_cycle;Max_cycle;Signal;HPM_P1;HPM_P2
2022/03/02 00:00:19;;;;;;;60.10;29.90;;;2.40;99.90;;;;;;5050850;28;20096;-72
2022/03/02 00:02:45;;;;;;;61.58;30.40;;;2.30;99.90;;;;;;5053477;28;20033;-73
2022/03/02 00:05:11;;;;;;;57.85;28.50;;;2.40;99.90;;;;;;5053447;28;20035;-73
2022/03/02 00:07:37;;;;;;;59.72;29.20;;;2.30;99.90;;;;;;5053389;28;20755;-72
2022/03/02 00:10:04;;;;;;;63.72;31.13;;;2.40;99.90;;;;;;5053432;28;20163;-72
2022/03/02 00:12:30;;;;;;;58.80;29.27;;;2.40;99.90;;;;;;5053567;28;20032;-72
2022/03/02 00:14:57;;;;;;;61.47;31.52;;;2.40;99.90;;;;;;5053128;28;20056;-73
2022/03/02 00:17:23;;;;;;;61.05;31.95;;;2.40;99.90;;;;;;5052971;28;20029;-73
2022/03/02 00:19:48;;;;;;;60.42;30.52;;;2.40;99.90;;;;;;5053462;28;20459;-73
2022/03/02 00:22:14;;;;;;;74.75;38.53;;;2.40;99.90;;;;;;5053361;28;20036;-73
2022/03/02 00:24:40;;;;;;;52.05;27.00;;;2.40;99.90;;;;;;5052971;28;20390;-73
2022/03/02 00:27:06;;;;;;;53.17;26.55;;;2.40;99.90;;;;;;5052972;28;20056;-73
2022/03/02 00:29:32;;;;;;;53.80;29.48;;;2.40;99.90;;;;;;5053185;28;20053;-73
2022/03/02 00:31:58;;;;;;;65.90;33.70;;;2.40;99.90;;;;;;5053077;28;20021;-73
2022/03/02 00:34:23;;;;;;;59.67;29.92;;;2.40;99.90;;;;;;5052561;28;20144;-73
2022/03/02 00:36:49;;;;;;;60.72;27.85;;;2.40;99.90;;;;;;5052953;28;20107;-72
2022/03/02 00:39:16;;;;;;;52.90;26.17;;;2.40;99.90;;;;;;5052784;28;20452;-72
2022/03/02 00:41:42;;;;;;;47.50;24.88;;;2.40;99.90;;;;;;5052768;28;20472;-72
2022/03/02 00:44:08;;;;;;;58.88;27.42;;;2.40;99.90;;;;;;5053061;28;20016;-72
2022/03/02 00:46:34;;;;;;;59.45;26.50;;;2.40;99.90;;;;;;5052722;28;20032;-72
2022/03/02 00:49:02;;;;;;;66.25;27.40;;;2.40;99.90;;;;;;5052489;28;20083;-71
2022/03/02 00:51:28;;;;;;;49.70;25.23;;;2.40;99.90;;;;;;5052628;28;20448;-73
2022/03/02 00:53:55;;;;;;;56.60;27.38;;;2.40;99.90;;;;;;5052749;28;20087;-72
2022/03/02 00:56:21;;;;;;;50.75;24.90;;;2.40;99.90;;;;;;5052580;28;20025;-73
2022/03/02 00:58:48;;;;;;;45.65;24.00;;;2.40;99.90;;;;;;5052440;28;20356;-72
2022/03/02 01:01:14;;;;;;;50.05;25.42;;;2.40;99.90;;;;;;5053091;28;20100;-72
2022/03/02 01:03:40;;;;;;;47.75;24.58;;;2.30;99.90;;;;;;5049695;28;20029;-73
2022/03/02 01:06:06;;;;;;;51.28;25.75;;;2.30;99.90;;;;;;5052231;28;20025;-73
2022/03/02 01:08:33;;;;;;;46.25;24.38;;;2.40;99.90;;;;;;5052545;28;20024;-73
2022/03/02 01:10:59;;;;;;;44.97;24.50;;;2.40;99.90;;;;;;5049382;28;20052;-73
2022/03/02 01:13:25;;;;;;;44.88;25.90;;;2.40;99.90;;;;;;5052312;28;20068;-72
2022/03/02 01:15:51;;;;;;;47.40;26.40;;;2.40;99.90;;;;;;5052524;28;20029;-73
2022/03/02 01:18:17;;;;;;;36.75;20.60;;;2.40;99.90;;;;;;5052309;28;20025;-72
2022/03/02 01:20:44;;;;;;;44.00;21.40;;;2.40;99.90;;;;;;5052322;28;20112;-73
2022/03/02 01:23:10;;;;;;;45.40;23.35;;;2.40;99.90;;;;;;5052267;28;20521;-73
2022/03/02 01:25:35;;;;;;;53.90;26.02;;;2.40;99.90;;;;;;5052570;28;20033;-72
2022/03/02 01:28:01;;;;;;;40.20;22.30;;;2.40;99.90;;;;;;5052303;28;20021;-72
2022/03/02 01:30:27;;;;;;;44.13;23.15;;;2.40;99.90;;;;;;5052199;28;20468;-72
2022/03/02 01:32:53;;;;;;;44.50;23.08;;;2.40;99.90;;;;;;5052196;28;20037;-72
2022/03/02 01:35:19;;;;;;;43.10;22.00;;;2.40;99.90;;;;;;5049422;28;20047;-72
2022/03/02 01:37:45;;;;;;;44.80;22.83;;;2.40;99.90;;;;;;5052000;28;20025;-73
2022/03/02 01:40:11;;;;;;;46.10;24.52;;;2.40;99.90;;;;;;5051973;28;20025;-72
2022/03/02 01:42:38;;;;;;;47.70;24.15;;;2.40;99.90;;;;;;5050808;28;20040;-72
2022/03/02 01:45:07;;;;;;;45.08;23.45;;;2.30;99.90;;;;;;5051621;28;20421;-72
2022/03/02 01:47:33;;;;;;;52.45;25.05;;;2.30;99.90;;;;;;5052047;28;20021;-72
2022/03/02 01:50:00;;;;;;;45.42;22.83;;;2.30;99.90;;;;;;5051722;28;20482;-72
2022/03/02 01:52:26;;;;;;;51.72;25.63;;;2.30;99.90;;;;;;5051864;28;20103;-73
2022/03/02 01:54:52;;;;;;;44.42;22.85;;;2.30;99.90;;;;;;5051893;28;20478;-73
2022/03/02 01:57:18;;;;;;;46.47;24.58;;;2.30;99.90;;;;;;5051816;28;20491;-72
2022/03/02 01:59:44;;;;;;;46.20;23.30;;;2.30;99.90;;;;;;5051750;28;20029;-73
2022/03/02 02:02:10;;;;;;;40.20;21.17;;;2.30;99.90;;;;;;5053089;28;20449;-73
2022/03/02 02:04:36;;;;;;;44.30;22.70;;;2.30;99.90;;;;;;5055856;28;20071;-73
2022/03/02 02:07:02;;;;;;;41.78;22.70;;;2.20;99.90;;;;;;5055675;28;20083;-72
2022/03/02 02:09:29;;;;;;;46.58;21.95;;;2.30;99.90;;;;;;5055811;28;20048;-73
2022/03/02 02:11:55;;;;;;;38.45;21.55;;;2.30;99.90;;;;;;5055793;28;20029;-73
2022/03/02 02:14:20;;;;;;;40.53;21.20;;;2.30;99.90;;;;;;5055632;28;20039;-72
2022/03/02 02:16:46;;;;;;;42.17;21.90;;;2.20;99.90;;;;;;5055548;28;20025;-72
2022/03/02 02:19:12;;;;;;;43.33;21.30;;;2.20;99.90;;;;;;5055489;28;20032;-72
2022/03/02 02:21:38;;;;;;;39.00;22.67;;;2.30;99.90;;;;;;5055343;28;20025;-72
2022/03/02 02:24:04;;;;;;;47.45;23.60;;;2.30;99.90;;;;;;5055438;28;20514;-72
2022/03/02 02:26:30;;;;;;;48.08;22.27;;;2.30;99.90;;;;;;5055330;28;20029;-73
2022/03/02 02:28:57;;;;;;;43.70;22.02;;;2.30;99.90;;;;;;5055234;28;20048;-72
2022/03/02 02:31:23;;;;;;;51.60;24.58;;;2.30;99.90;;;;;;5055394;28;20048;-72
2022/03/02 02:33:49;;;;;;;47.17;24.83;;;2.30;99.90;;;;;;5055103;28;20383;-73
2022/03/02 02:36:15;;;;;;;46.38;22.55;;;2.20;99.90;;;;;;5055040;28;20032;-72
2022/03/02 02:38:41;;;;;;;44.53;23.30;;;2.20;99.90;;;;;;5055294;28;20058;-72
2022/03/02 02:41:07;;;;;;;43.88;22.38;;;2.20;99.90;;;;;;5055117;28;20021;-72
2022/03/02 02:43:33;;;;;;;40.55;22.58;;;2.20;99.90;;;;;;5054915;28;20360;-72
2022/03/02 02:45:59;;;;;;;42.88;22.25;;;2.20;99.90;;;;;;5054784;28;20415;-73
2022/03/02 02:48:25;;;;;;;42.08;23.52;;;2.20;99.90;;;;;;5054957;28;20028;-73
2022/03/02 02:50:51;;;;;;;48.67;24.20;;;2.20;99.90;;;;;;5054993;28;20029;-73
2022/03/02 02:53:17;;;;;;;40.72;20.77;;;2.20;99.90;;;;;;5054961;28;20027;-73
2022/03/02 02:55:44;;;;;;;36.00;19.67;;;2.20;99.90;;;;;;5054772;28;20032;-73
2022/03/02 02:58:10;;;;;;;40.30;21.63;;;2.20;99.90;;;;;;5054930;28;20056;-72
2022/03/02 03:00:40;;;;;;;54.65;26.67;;;2.20;99.90;;;;;;5054839;28;20021;-72
2022/03/02 03:03:05;;;;;;;43.58;23.02;;;2.20;99.90;;;;;;5054660;28;20021;-72
2022/03/02 03:05:33;;;;;;;44.25;22.23;;;2.20;99.90;;;;;;5054795;28;20029;-73
2022/03/02 03:08:01;;;;;;;39.00;20.13;;;2.20;99.90;;;;;;5054519;28;20387;-72
2022/03/02 03:10:27;;;;;;;38.30;20.52;;;2.20;99.90;;;;;;5054555;28;20056;-72
2022/03/02 03:12:53;;;;;;;41.40;20.83;;;2.10;99.90;;;;;;5053870;28;20079;-73
2022/03/02 03:15:21;;;;;;;40.88;19.52;;;2.10;99.90;;;;;;5054314;28;20036;-71
2022/03/02 03:17:47;;;;;;;37.10;20.98;;;2.10;99.90;;;;;;5054573;28;20025;-72
2022/03/02 03:20:17;;;;;;;39.17;21.00;;;2.20;99.90;;;;;;5054439;28;20024;-73
2022/03/02 03:22:43;;;;;;;41.92;20.38;;;2.10;99.90;;;;;;5051938;28;20475;-72
2022/03/02 03:25:10;;;;;;;37.78;19.52;;;2.10;99.90;;;;;;5054633;28;20048;-72
2022/03/02 03:27:37;;;;;;;37.42;20.35;;;2.10;99.90;;;;;;5055324;28;20049;-72
2022/03/02 03:30:08;;;;;;;44.00;20.80;;;2.10;99.90;;;;;;5055634;28;20037;-72
2022/03/02 03:32:34;;;;;;;41.97;22.73;;;2.10;99.90;;;;;;5055709;28;20079;-72
2022/03/02 03:35:00;;;;;;;42.55;19.58;;;2.10;99.90;;;;;;5055545;28;20072;-72
2022/03/02 03:37:26;;;;;;;38.55;19.88;;;2.10;99.90;;;;;;5055504;28;20446;-73
2022/03/02 03:39:52;;;;;;;49.13;23.67;;;2.10;99.90;;;;;;5055273;28;20387;-73
2022/03/02 03:42:18;;;;;;;46.92;23.38;;;2.10;99.90;;;;;;5055135;28;20036;-72
2022/03/02 03:44:44;;;;;;;43.88;22.63;;;2.10;99.90;;;;;;5054922;28;20091;-73
2022/03/02 03:47:10;;;;;;;41.55;22.55;;;2.10;99.90;;;;;;5055358;28;20033;-72
2022/03/02 03:49:36;;;;;;;43.78;22.08;;;2.10;99.90;;;;;;5055488;28;20032;-72
2022/03/02 03:52:03;;;;;;;49.40;20.40;;;2.10;99.90;;;;;;5054787;28;20022;-72
2022/03/02 03:54:28;;;;;;;36.75;20.25;;;2.00;99.90;;;;;;5054800;28;20483;-72
2022/03/02 03:56:54;;;;;;;36.58;19.35;;;2.10;99.90;;;;;;5055254;28;20037;-72
2022/03/02 03:59:20;;;;;;;39.67;20.83;;;2.00;99.90;;;;;;5055035;28;20032;-72
2022/03/02 04:01:46;;;;;;;39.65;19.25;;;2.10;99.90;;;;;;5054840;28;20033;-71
2022/03/02 04:04:12;;;;;;;43.85;20.75;;;2.10;99.90;;;;;;5054850;28;20036;-73
2022/03/02 04:06:38;;;;;;;36.83;18.98;;;2.00;99.90;;;;;;5055105;28;20028;-73
2022/03/02 04:09:04;;;;;;;33.42;18.98;;;2.00;99.90;;;;;;5054871;28;20079;-72
2022/03/02 04:11:30;;;;;;;34.42;19.90;;;2.00;99.90;;;;;;5054579;28;20025;-73
2022/03/02 04:13:56;;;;;;;42.67;20.00;;;2.00;99.90;;;;;;5055075;28;20037;-73
2022/03/02 04:16:22;;;;;;;38.30;19.75;;;2.00;99.90;;;;;;5054508;28;20108;-72
2022/03/02 04:18:48;;;;;;;38.10;20.55;;;1.90;99.90;;;;;;5054442;28;20523;-72
2022/03/02 04:21:14;;;;;;;38.55;20.23;;;2.00;99.90;;;;;;5054805;28;20025;-72
2022/03/02 04:23:40;;;;;;;40.78;20.02;;;1.90;99.90;;;;;;5054115;28;20119;-72
2022/03/02 04:26:06;;;;;;;35.22;20.38;;;1.90;99.90;;;;;;5053909;28;20159;-72
2022/03/02 04:28:32;;;;;;;36.05;19.20;;;1.90;99.90;;;;;;5054607;28;20110;-73
2022/03/02 04:30:58;;;;;;;39.30;20.35;;;1.90;99.90;;;;;;5054497;28;20025;-72
2022/03/02 04:33:24;;;;;;;43.97;22.90;;;1.90;99.90;;;;;;5054645;28;20036;-72
2022/03/02 04:35:49;;;;;;;43.67;23.20;;;1.90;99.90;;;;;;5054422;28;20039;-73
2022/03/02 04:38:15;;;;;;;42.20;22.80;;;1.90;99.90;;;;;;5054498;28;20025;-72
2022/03/02 04:40:41;;;;;;;37.30;21.13;;;1.90;99.90;;;;;;5053881;28;20066;-72
2022/03/02 04:43:07;;;;;;;34.58;19.45;;;1.90;99.90;;;;;;5054037;28;20025;-72
2022/03/02 04:45:34;;;;;;;41.88;21.25;;;1.90;99.90;;;;;;5054079;28;20091;-72
2022/03/02 04:48:00;;;;;;;41.22;22.50;;;1.90;99.90;;;;;;5054128;28;20060;-72
2022/03/02 04:50:27;;;;;;;40.63;21.88;;;1.80;99.90;;;;;;5054350;28;20024;-72
2022/03/02 04:52:55;;;;;;;51.78;23.30;;;1.80;99.90;;;;;;5054335;28;20064;-72
2022/03/02 04:55:22;;;;;;;43.28;23.50;;;1.80;99.90;;;;;;5053913;28;20083;-72
2022/03/02 04:57:53;;;;;;;55.28;27.27;;;1.80;99.90;;;;;;5054121;28;20028;-72
2022/03/02 05:00:26;;;;;;;61.97;30.25;;;1.80;99.90;;;;;;5054074;28;20021;-73
2022/03/02 05:02:52;;;;;;;50.10;25.77;;;1.80;99.90;;;;;;5054691;28;20123;-72
2022/03/02 05:05:21;;;;;;;56.05;26.83;;;1.80;99.90;;;;;;5053950;28;20059;-72
2022/03/02 05:07:47;;;;;;;59.25;28.58;;;1.80;99.90;;;;;;5053679;28;20059;-72
2022/03/02 05:10:15;;;;;;;74.50;36.40;;;1.70;99.90;;;;;;5053709;28;20100;-72
2022/03/02 05:12:41;;;;;;;60.58;31.23;;;1.80;99.90;;;;;;5053884;28;20052;-72
2022/03/02 05:15:09;;;;;;;61.20;32.20;;;1.70;99.90;;;;;;5053742;28;20095;-73
2022/03/02 05:17:35;;;;;;;45.50;25.23;;;1.70;99.90;;;;;;5053617;28;20078;-72
2022/03/02 05:20:02;;;;;;;54.55;27.42;;;1.70;99.90;;;;;;5053781;28;20521;-72
2022/03/02 05:22:28;;;;;;;45.28;25.42;;;1.60;99.90;;;;;;5053833;28;20403;-73
2022/03/02 05:24:54;;;;;;;49.00;24.48;;;1.60;99.90;;;;;;5053711;28;20025;-72
2022/03/02 05:27:19;;;;;;;52.90;29.70;;;1.60;99.90;;;;;;5053862;28;20464;-73
2022/03/02 05:29:45;;;;;;;45.25;24.00;;;1.60;99.90;;;;;;5052975;28;20049;-72
2022/03/02 05:32:11;;;;;;;47.65;24.75;;;1.60;99.90;;;;;;5053638;28;20447;-73
2022/03/02 05:34:37;;;;;;;45.65;24.00;;;1.60;99.90;;;;;;5053606;28;20075;-72
2022/03/02 05:37:03;;;;;;;51.03;25.98;;;1.50;99.90;;;;;;5058451;28;20021;-72
2022/03/02 05:39:30;;;;;;;38.42;21.30;;;1.60;99.90;;;;;;5059912;28;20025;-73
2022/03/02 05:41:56;;;;;;;46.03;22.90;;;1.60;99.90;;;;;;5059987;28;20029;-73
2022/03/02 05:44:21;;;;;;;42.78;21.35;;;1.50;99.90;;;;;;5060048;28;20032;-73
2022/03/02 05:46:48;;;;;;;48.78;24.65;;;1.60;99.90;;;;;;5059855;28;20063;-72
2022/03/02 05:49:14;;;;;;;54.15;25.85;;;1.60;99.90;;;;;;5059973;28;20075;-72
2022/03/02 05:51:40;;;;;;;61.03;28.27;;;1.60;99.90;;;;;;5059944;28;20052;-73
2022/03/02 05:54:10;;;;;;;43.88;25.40;;;1.60;99.90;;;;;;5059728;28;20029;-73
2022/03/02 05:56:37;;;;;;;39.92;21.40;;;1.60;99.90;;;;;;5059953;28;20029;-73
2022/03/02 05:59:12;;;;;;;49.90;25.02;;;1.70;99.90;;;;;;5059976;28;20029;-73
2022/03/02 06:01:39;;;;;;;54.33;26.58;;;1.70;99.90;;;;;;5060145;28;20408;-73
2022/03/02 06:04:05;;;;;;;57.80;28.48;;;1.70;99.90;;;;;;5059633;28;20482;-73
2022/03/02 06:06:33;;;;;;;58.80;28.40;;;1.70;99.90;;;;;;5059825;28;20055;-73
2022/03/02 06:09:00;;;;;;;70.78;33.20;;;1.70;99.90;;;;;;5059977;28;20025;-73
2022/03/02 06:11:26;;;;;;;63.25;30.38;;;1.70;99.90;;;;;;5059937;28;20060;-72
2022/03/02 06:13:53;;;;;;;66.32;30.25;;;1.80;99.90;;;;;;5059877;28;20028;-72
2022/03/02 06:16:19;;;;;;;56.90;29.85;;;1.70;99.90;;;;;;5059703;28;20036;-73
2022/03/02 06:18:45;;;;;;;62.45;27.88;;;1.80;99.90;;;;;;5060075;28;20116;-72
2022/03/02 06:21:32;;;;;;;52.30;26.27;;;1.90;99.90;;;;;;5059617;28;20036;-72
2022/03/02 06:23:58;;;;;;;48.90;26.15;;;1.80;99.90;;;;;;5059931;28;20033;-73
2022/03/02 06:26:26;;;;;;;53.33;23.42;;;1.80;99.90;;;;;;5059687;28;20447;-73
2022/03/02 06:28:52;;;;;;;46.45;23.48;;;1.80;99.90;;;;;;5059554;28;20045;-73
2022/03/02 06:31:18;;;;;;;51.00;24.85;;;1.80;99.90;;;;;;5059098;28;20472;-73
2022/03/02 06:33:47;;;;;;;43.85;22.23;;;1.90;99.90;;;;;;5059386;28;20036;-73
2022/03/02 06:36:14;;;;;;;53.30;26.80;;;1.90;99.90;;;;;;5059733;28;20033;-73
2022/03/02 06:38:40;;;;;;;44.42;22.02;;;1.90;99.90;;;;;;5059889;28;20032;-72
2022/03/02 06:41:36;;;;;;;36.35;19.63;;;2.00;99.90;;;;;;5059667;28;20431;-73
2022/03/02 06:44:24;;;;;;;47.15;24.45;;;2.00;99.90;;;;;;5059799;28;20029;-72
2022/03/02 06:47:00;;;;;;;88.30;37.33;;;2.10;99.90;;;;;;5059310;28;20029;-72
2022/03/02 06:49:35;;;;;;;90.25;42.15;;;2.20;99.90;;;;;;5054589;28;20025;-74
2022/03/02 06:52:03;;;;;;;70.55;35.30;;;2.30;99.90;;;;;;5055188;28;20039;-72
2022/03/02 06:54:31;;;;;;;47.88;22.88;;;2.30;99.90;;;;;;5055924;28;20037;-72
2022/03/02 06:57:00;;;;;;;48.95;22.77;;;2.20;99.90;;;;;;5056287;28;20087;-72
2022/03/02 06:59:35;;;;;;;38.08;18.48;;;2.20;99.90;;;;;;5055820;28;20051;-73
2022/03/02 07:02:03;;;;;;;42.88;20.77;;;2.20;99.90;;;;;;5056299;28;20071;-72
2022/03/02 07:04:34;;;;;;;55.95;27.77;;;2.10;99.90;;;;;;5056139;28;20487;-72
2022/03/02 07:07:02;;;;;;;50.17;23.85;;;2.20;99.90;;;;;;5056049;28;20037;-73
2022/03/02 07:09:30;;;;;;;82.35;33.58;;;2.20;99.90;;;;;;5055844;28;20032;-71
2022/03/02 07:11:58;;;;;;;121.75;51.38;;;2.20;99.90;;;;;;5055797;28;20112;-72
2022/03/02 07:14:25;;;;;;;126.85;54.97;;;2.30;99.90;;;;;;5056037;28;20033;-72
2022/03/02 07:16:51;;;;;;;98.05;45.72;;;2.30;99.90;;;;;;5054643;28;20067;-73
2022/03/02 07:19:17;;;;;;;89.57;43.15;;;2.30;99.90;;;;;;5055088;28;20464;-72
2022/03/02 07:21:46;;;;;;;60.00;31.45;;;2.50;99.90;;;;;;5055232;28;20074;-72
2022/03/02 07:24:17;;;;;;;58.75;31.27;;;2.50;99.90;;;;;;5055199;28;20029;-73
2022/03/02 07:26:51;;;;;;;38.10;20.77;;;2.60;99.90;;;;;;5054697;28;20039;-72
2022/03/02 07:29:19;;;;;;;46.85;25.52;;;2.70;99.90;;;;;;5055448;28;20041;-73
2022/03/02 07:31:46;;;;;;;68.97;32.05;;;2.60;99.90;;;;;;5054705;28;20033;-72
2022/03/02 07:34:15;;;;;;;66.38;30.05;;;2.60;99.90;;;;;;5055001;28;20048;-73
2022/03/02 07:36:41;;;;;;;48.30;27.30;;;2.70;99.90;;;;;;5055488;28;20391;-73
2022/03/02 07:39:08;;;;;;;42.92;22.58;;;2.70;99.90;;;;;;5055271;28;20475;-72
2022/03/02 07:41:35;;;;;;;40.17;22.10;;;2.70;99.90;;;;;;5055467;28;20021;-73
2022/03/02 07:44:02;;;;;;;45.40;22.88;;;2.70;99.90;;;;;;5055572;28;20036;-72
2022/03/02 07:46:29;;;;;;;53.40;26.33;;;2.60;99.90;;;;;;5055306;28;20021;-73
2022/03/02 07:48:58;;;;;;;74.45;31.27;;;2.80;99.90;;;;;;5055359;28;20024;-72
2022/03/02 07:51:24;;;;;;;57.05;27.20;;;2.70;99.90;;;;;;5055134;28;20087;-72
2022/03/02 07:53:55;;;;;;;53.45;24.73;;;2.70;99.90;;;;;;5055202;28;20032;-72
2022/03/02 07:56:22;;;;;;;47.00;21.23;;;2.70;99.90;;;;;;5054906;28;20448;-73
2022/03/02 07:58:49;;;;;;;41.70;22.20;;;2.60;99.90;;;;;;5054394;28;20032;-73
2022/03/02 08:01:18;;;;;;;88.78;42.20;;;2.60;99.90;;;;;;5054367;28;20025;-73
2022/03/02 08:03:44;;;;;;;81.95;40.00;;;2.60;99.90;;;;;;5054869;28;20059;-73
2022/03/02 08:06:11;;;;;;;67.35;35.60;;;2.80;99.90;;;;;;5055037;28;20555;-74
2022/03/02 08:08:38;;;;;;;87.30;37.95;;;2.80;99.90;;;;;;5054925;28;20017;-74
2022/03/02 08:11:04;;;;;;;88.35;39.72;;;2.90;99.90;;;;;;5054846;28;20059;-73
2022/03/02 08:13:32;;;;;;;45.45;23.65;;;2.90;99.90;;;;;;5054738;28;20033;-72
2022/03/02 08:15:58;;;;;;;42.50;22.08;;;3.00;99.90;;;;;;5054918;28;20029;-73
2022/03/02 08:18:24;;;;;;;35.08;19.48;;;3.00;99.90;;;;;;5054708;28;20032;-73
2022/03/02 08:20:52;;;;;;;52.35;26.50;;;3.00;99.90;;;;;;5055018;28;20464;-73
2022/03/02 08:23:19;;;;;;;50.60;24.55;;;3.10;99.90;;;;;;5054334;28;20440;-73
2022/03/02 08:25:54;;;;;;;49.25;24.02;;;3.10;99.90;;;;;;5055035;28;20036;-74
2022/03/02 08:28:22;;;;;;;42.42;20.40;;;3.20;99.90;;;;;;5054621;28;20430;-74
2022/03/02 08:30:53;;;;;;;50.30;22.45;;;3.30;99.90;;;;;;5054588;28;20029;-73
2022/03/02 08:33:29;;;;;;;43.45;21.42;;;3.50;99.90;;;;;;5054718;28;20482;-73
2022/03/02 08:35:56;;;;;;;30.85;16.88;;;3.60;99.90;;;;;;5054234;28;20044;-73
2022/03/02 08:38:24;;;;;;;42.70;19.58;;;3.50;99.90;;;;;;5054028;28;20017;-73
2022/03/02 08:40:50;;;;;;;39.50;18.95;;;3.70;99.90;;;;;;5054355;28;20490;-73
2022/03/02 08:43:16;;;;;;;44.75;18.30;;;3.60;99.90;;;;;;5054446;28;20025;-72
2022/03/02 08:45:50;;;;;;;44.42;20.08;;;3.70;99.90;;;;;;5053895;28;20098;-73
2022/03/02 08:48:17;;;;;;;28.45;13.68;;;3.90;99.90;;;;;;5053732;28;20515;-73
2022/03/02 08:50:45;;;;;;;27.98;13.68;;;3.80;99.90;;;;;;5054257;28;20025;-73
2022/03/02 08:53:16;;;;;;;33.65;16.40;;;4.00;99.90;;;;;;5053675;28;20434;-73
2022/03/02 08:55:44;;;;;;;41.13;19.67;;;4.10;99.80;;;;;;5054106;28;20029;-73
2022/03/02 08:58:10;;;;;;;27.52;14.50;;;4.20;99.90;;;;;;5053967;28;20511;-74
2022/03/02 09:00:37;;;;;;;27.02;13.30;;;4.40;99.20;;;;;;5054185;28;20021;-72
2022/03/02 09:03:04;;;;;;;25.33;13.43;;;4.30;97.10;;;;;;5053691;28;20029;-73
2022/03/02 09:05:30;;;;;;;28.77;13.15;;;4.50;98.10;;;;;;5053767;28;20029;-72
2022/03/02 09:07:57;;;;;;;31.77;15.32;;;4.60;96.70;;;;;;5053742;28;20022;-73
2022/03/02 09:10:23;;;;;;;24.52;13.65;;;4.60;97.00;;;;;;5053561;28;20029;-72
2022/03/02 09:12:50;;;;;;;27.90;15.05;;;4.80;96.20;;;;;;5053478;28;20468;-73
2022/03/02 09:15:16;;;;;;;26.50;14.13;;;5.20;95.30;;;;;;5053625;28;20492;-73
2022/03/02 09:17:42;;;;;;;35.92;19.17;;;5.20;93.50;;;;;;5053808;28;20053;-72
2022/03/02 09:20:09;;;;;;;34.28;16.75;;;5.20;93.00;;;;;;5053931;28;20420;-72
2022/03/02 09:22:38;;;;;;;34.28;17.92;;;5.40;92.80;;;;;;5052801;28;20040;-74
2022/03/02 09:25:08;;;;;;;28.08;14.48;;;5.30;92.90;;;;;;5052944;28;20064;-74
2022/03/02 09:27:35;;;;;;;30.92;15.15;;;5.50;92.30;;;;;;5052654;28;20023;-73
2022/03/02 09:30:05;;;;;;;32.05;13.77;;;5.90;92.10;;;;;;5052798;28;20053;-73
2022/03/02 09:32:31;;;;;;;28.98;14.80;;;6.00;90.40;;;;;;5053766;28;20044;-73
2022/03/02 09:34:59;;;;;;;29.42;12.35;;;5.90;90.30;;;;;;5053076;28;20476;-74
2022/03/02 09:37:27;;;;;;;31.90;17.20;;;6.10;89.60;;;;;;5053201;28;20029;-73
2022/03/02 09:39:53;;;;;;;45.75;21.90;;;6.10;87.70;;;;;;5052669;28;20411;-72
2022/03/02 09:42:30;;;;;;;65.00;32.05;;;6.50;88.20;;;;;;5052668;28;20072;-73
2022/03/02 09:45:23;;;;;;;31.50;13.20;;;6.60;88.50;;;;;;5053350;28;20033;-73
2022/03/02 09:47:56;;;;;;;39.78;18.13;;;6.40;83.30;;;;;;5046393;28;20033;-73
2022/03/02 09:50:25;;;;;;;28.70;15.13;;;6.80;83.30;;;;;;5053222;28;20055;-72
2022/03/02 09:52:54;;;;;;;51.17;25.25;;;7.10;80.50;;;;;;5053399;28;20029;-73
2022/03/02 09:55:24;;;;;;;46.15;18.05;;;7.90;79.90;;;;;;5053275;28;20171;-72
2022/03/02 09:57:53;;;;;;;32.42;15.38;;;8.60;76.40;;;;;;5052806;28;20021;-73
2022/03/02 10:00:21;;;;;;;28.15;13.98;;;8.70;74.20;;;;;;5052892;28;20059;-69
2022/03/02 10:02:50;;;;;;;25.38;12.15;;;8.80;73.10;;;;;;5052775;28;20036;-70
2022/03/02 10:05:31;;;;;;;34.40;16.35;;;8.60;72.00;;;;;;5052985;28;20025;-70
2022/03/02 10:08:03;;;;;;;36.22;16.95;;;8.30;72.20;;;;;;5051829;28;20036;-70
2022/03/02 10:10:33;;;;;;;25.13;12.18;;;8.40;73.10;;;;;;5051028;28;20107;-71
2022/03/02 10:13:01;;;;;;;24.60;13.05;;;8.00;73.60;;;;;;5053211;28;20478;-71
2022/03/02 10:15:29;;;;;;;23.83;10.93;;;7.90;76.20;;;;;;5052668;28;20075;-70
2022/03/02 10:18:00;;;;;;;24.13;13.32;;;7.30;74.70;;;;;;5053244;28;20025;-70
2022/03/02 10:20:31;;;;;;;24.88;11.98;;;7.70;77.20;;;;;;5053143;28;20104;-71
2022/03/02 10:23:41;;;;;;;24.77;11.45;;;7.40;75.10;;;;;;5053774;28;20036;-71
2022/03/02 10:26:16;;;;;;;30.73;15.75;;;7.40;76.10;;;;;;5034546;28;20588;-70
2022/03/02 10:29:06;;;;;;;51.00;25.90;;;7.70;74.90;;;;;;5034489;28;20152;-73
2022/03/02 10:31:39;;;;;;;38.63;21.55;;;8.50;72.30;;;;;;5034622;28;20075;-73
2022/03/02 10:34:23;;;;;;;29.55;16.15;;;9.30;70.80;;;;;;5034403;28;20041;-72
2022/03/02 10:37:02;;;;;;;41.67;21.33;;;10.30;68.00;;;;;;5034231;28;20037;-73
2022/03/02 10:39:51;;;;;;;24.58;12.82;;;10.70;64.60;;;;;;5034622;28;20029;-74
2022/03/02 10:42:21;;;;;;;31.88;16.10;;;11.00;62.50;;;;;;5033319;28;20519;-74
2022/03/02 10:45:10;;;;;;;35.80;17.77;;;10.80;60.70;;;;;;5034224;28;20029;-72
2022/03/02 10:47:42;;;;;;;30.08;14.45;;;10.70;60.50;;;;;;5034483;28;20029;-73
2022/03/02 10:50:08;;;;;;;27.23;14.88;;;10.40;60.90;;;;;;5034154;28;20029;-70
2022/03/02 10:52:39;;;;;;;35.88;20.35;;;10.80;61.80;;;;;;5034322;28;20052;-70
2022/03/02 10:55:11;;;;;;;35.20;17.00;;;10.90;61.40;;;;;;5033903;28;20037;-71
2022/03/02 10:57:38;;;;;;;59.80;26.02;;;11.20;59.10;;;;;;5033626;28;20033;-70
2022/03/02 11:00:11;;;;;;;81.35;38.53;;;11.40;59.20;;;;;;5033943;28;20040;-70
2022/03/02 11:02:43;;;;;;;33.40;16.65;;;11.90;57.90;;;;;;5053440;28;20056;-71
2022/03/02 11:05:12;;;;;;;32.85;18.10;;;11.50;57.00;;;;;;5055969;28;20114;-71
2022/03/02 11:07:39;;;;;;;38.25;18.30;;;11.40;59.50;;;;;;5056222;28;20476;-71
2022/03/02 11:10:08;;;;;;;22.50;12.52;;;12.30;60.00;;;;;;5055625;28;20044;-71
2022/03/02 11:12:34;;;;;;;26.95;14.90;;;11.60;60.20;;;;;;5055476;28;20467;-72
2022/03/02 11:15:03;;;;;;;40.65;21.35;;;11.40;60.30;;;;;;5055689;28;20099;-71
2022/03/02 11:17:29;;;;;;;23.60;12.55;;;12.20;59.40;;;;;;5055858;28;20097;-71
2022/03/02 11:19:57;;;;;;;61.00;28.15;;;11.60;58.00;;;;;;5055556;28;20459;-71
2022/03/02 11:22:25;;;;;;;69.68;32.00;;;11.80;59.50;;;;;;5055673;28;20024;-70
2022/03/02 11:24:57;;;;;;;138.25;57.17;;;12.00;58.20;;;;;;5055726;28;20116;-71
2022/03/02 11:27:27;;;;;;;38.38;19.13;;;12.40;58.70;;;;;;5055216;28;20025;-71
2022/03/02 11:30:15;;;;;;;44.92;22.55;;;11.90;55.60;;;;;;5055592;28;20507;-70
2022/03/02 11:32:43;;;;;;;53.88;29.50;;;12.10;58.00;;;;;;5055488;28;20087;-71
2022/03/02 11:35:13;;;;;;;21.70;11.45;;;11.80;59.20;;;;;;5055183;28;20083;-71
2022/03/02 11:37:40;;;;;;;40.03;22.92;;;11.50;55.40;;;;;;5055202;28;20021;-71
2022/03/02 11:40:09;;;;;;;40.42;22.58;;;12.30;57.60;;;;;;5054848;28;20028;-71
2022/03/02 11:42:37;;;;;;;80.25;46.20;;;12.30;57.90;;;;;;5055286;28;20017;-70
2022/03/02 11:45:06;;;;;;;21.40;13.45;;;11.80;57.00;;;;;;5055339;28;20033;-71
2022/03/02 11:47:38;;;;;;;44.17;24.05;;;11.80;57.00;;;;;;5054747;28;20032;-71
2022/03/02 11:50:07;;;;;;;23.55;13.40;;;11.30;57.30;;;;;;5054873;28;20029;-71
2022/03/02 11:52:35;;;;;;;24.02;14.32;;;10.90;57.20;;;;;;5055131;28;20137;-71
2022/03/02 11:55:05;;;;;;;37.40;22.20;;;11.30;57.40;;;;;;5054882;28;20033;-70
2022/03/02 11:57:39;;;;;;;33.15;19.02;;;10.90;58.20;;;;;;5055080;28;20044;-71
2022/03/02 12:00:15;;;;;;;20.55;10.10;;;11.10;56.60;;;;;;5054574;28;20025;-71
2022/03/02 12:02:48;;;;;;;17.88;11.02;;;11.30;55.30;;;;;;5054710;28;20380;-70
2022/03/02 12:05:16;;;;;;;41.25;18.13;;;11.40;55.00;;;;;;5054164;28;20032;-70
2022/03/02 12:07:50;;;;;;;39.67;20.77;;;11.10;56.00;;;;;;5054262;28;20025;-71
2022/03/02 12:10:31;;;;;;;38.40;16.73;;;11.00;55.90;;;;;;5035144;28;20522;-73
2022/03/02 12:12:57;;;;;;;31.20;16.85;;;10.30;57.30;;;;;;5033378;28;20072;-71
2022/03/02 12:15:25;;;;;;;29.02;13.85;;;10.30;57.40;;;;;;5032782;28;20053;-71
2022/03/02 12:17:53;;;;;;;29.42;13.95;;;10.10;57.10;;;;;;5034398;28;20499;-70
2022/03/02 12:20:24;;;;;;;37.25;20.33;;;10.50;57.10;;;;;;5034691;28;20056;-70
2022/03/02 12:22:57;;;;;;;32.17;17.05;;;11.00;56.00;;;;;;5032898;28;20029;-70
2022/03/02 12:25:25;;;;;;;55.80;29.83;;;11.20;55.70;;;;;;5033939;28;20034;-70
2022/03/02 12:28:03;;;;;;;23.67;11.68;;;11.20;56.40;;;;;;5034249;28;20029;-71
2022/03/02 12:30:35;;;;;;;36.78;19.42;;;11.60;55.40;;;;;;5034723;28;20053;-71
2022/03/02 12:33:02;;;;;;;55.08;26.05;;;10.90;55.00;;;;;;5034438;28;20037;-70
2022/03/02 12:35:28;;;;;;;62.42;28.15;;;10.50;58.10;;;;;;5033905;28;20041;-70
2022/03/02 12:37:59;;;;;;;25.77;13.10;;;10.90;58.70;;;;;;5034423;28;20484;-70
2022/03/02 12:40:28;;;;;;;27.38;12.70;;;11.10;57.40;;;;;;5034280;28;20472;-71